createdAt,value
2017-05-09T00:00:21.497Z,71.25
2017-05-09T00:01:31.448Z,71.69
2017-05-09T00:02:41.745Z,71.78
2017-05-09T00:03:52.001Z,72.25
2017-05-09T00:05:02.269Z,70.83
2017-05-09T00:06:12.529Z,71.21
2017-05-09T00:07:22.784Z,70.83
2017-05-09T00:08:32.732Z,71.59
2017-05-09T00:09:42.994Z,71.02
2017-05-09T00:10:53.260Z,70.55
2017-05-09T00:12:03.521Z,70.83
2017-05-09T00:13:13.154Z,70.93
2017-05-09T00:14:23.098Z,70.93
2017-05-09T00:15:33.050Z,71.31
2017-05-09T00:16:43.302Z,72.25
2017-05-09T00:17:53.560Z,71.88
2017-05-09T00:19:03.830Z,72.16
2017-05-09T00:20:14.089Z,72.06
2017-05-09T00:21:24.349Z,72.44
2017-05-09T00:22:34.616Z,72.53
2017-05-09T00:23:44.883Z,72.16
2017-05-09T00:24:55.151Z,72.34
2017-05-09T00:26:05.104Z,72.25
2017-05-09T00:27:14.738Z,72.16
2017-05-09T00:28:24.377Z,72.25
2017-05-09T00:29:34.638Z,72.34
2017-05-09T00:30:44.625Z,72.25
2017-05-09T00:31:54.881Z,73.11
2017-05-09T00:33:04.510Z,73.2
2017-05-09T00:34:14.785Z,73.2
2017-05-09T00:35:25.042Z,72.53
2017-05-09T00:36:35.302Z,72.92
2017-05-09T00:37:45.569Z,73.3
2017-05-09T00:38:55.835Z,72.92
2017-05-09T00:40:06.096Z,73.01
2017-05-09T00:41:16.045Z,73.39
2017-05-09T00:42:25.993Z,73.3
2017-05-09T00:43:36.246Z,72.16
2017-05-09T00:44:46.202Z,71.5
2017-05-09T00:45:56.455Z,72.25
2017-05-09T00:47:06.730Z,72.25
2017-05-09T00:48:16.997Z,71.69
2017-05-09T00:49:27.256Z,72.34
2017-05-09T00:50:37.522Z,73.2
2017-05-09T00:51:47.467Z,73.01
2017-05-09T00:52:57.725Z,73.39
2017-05-09T00:54:07.994Z,73.58
2017-05-09T00:55:18.260Z,73.86
2017-05-09T00:56:28.515Z,73.96
2017-05-09T00:57:38.781Z,73.86
2017-05-09T00:58:49.040Z,73.77
2017-05-09T00:59:59.308Z,73.96
2017-05-09T01:01:09.566Z,73.39
2017-05-09T01:02:19.828Z,73.3
2017-05-09T01:03:30.083Z,72.06
2017-05-09T01:04:40.342Z,72.25
2017-05-09T01:05:50.604Z,72.34
2017-05-09T01:07:00.864Z,71.5
2017-05-09T01:08:11.127Z,70.64
2017-05-09T01:09:21.383Z,70.45
2017-05-09T01:10:31.656Z,70.36
2017-05-09T01:11:41.916Z,70.74
2017-05-09T01:12:52.179Z,70.07
2017-05-09T01:14:02.437Z,69.41
2017-05-09T01:15:12.381Z,68.65
2017-05-09T01:16:22.640Z,69.03
2017-05-09T01:17:32.894Z,68.56
2017-05-09T01:18:43.148Z,68.27
2017-05-09T01:19:53.407Z,68.27
2017-05-09T01:21:03.671Z,67.05
2017-05-09T01:22:13.927Z,67.24
2017-05-09T01:23:24.184Z,67.99
2017-05-09T01:24:34.437Z,67.9
2017-05-09T01:25:44.705Z,67.8
2017-05-09T01:26:54.961Z,66.57
2017-05-09T01:28:05.270Z,66.76
2017-05-09T01:29:15.221Z,65.81
2017-05-09T01:30:25.477Z,65.81
2017-05-09T01:31:35.735Z,65.53
2017-05-09T01:32:46.000Z,65.91
2017-05-09T01:33:56.272Z,66.09
2017-05-09T01:35:06.528Z,66.09
2017-05-09T01:36:16.794Z,65.06
2017-05-09T01:37:27.051Z,65.44
2017-05-09T01:38:36.994Z,65.63
2017-05-09T01:39:46.937Z,64.96
2017-05-09T01:40:57.201Z,66.57
2017-05-09T01:42:07.460Z,65.72
2017-05-09T01:43:17.092Z,64.87
2017-05-09T01:44:27.041Z,65.15
2017-05-09T01:45:37.310Z,66.38
2017-05-09T01:46:47.566Z,66
2017-05-09T01:47:57.509Z,65.34
2017-05-09T01:49:07.475Z,65.15
2017-05-09T01:50:17.786Z,66.19
2017-05-09T01:51:27.421Z,67.52
2017-05-09T01:52:37.679Z,66.95
2017-05-09T01:53:47.942Z,66.09
2017-05-09T01:54:58.214Z,66.57
2017-05-09T01:56:08.164Z,65.91
2017-05-09T01:57:18.426Z,65.53
2017-05-09T01:58:28.684Z,66.38
2017-05-09T01:59:38.941Z,66.09
2017-05-09T02:00:49.196Z,66.28
2017-05-09T02:01:59.454Z,66.38
2017-05-09T02:03:09.711Z,65.81
2017-05-09T02:04:19.657Z,66.47
2017-05-09T02:05:29.605Z,66.47
2017-05-09T02:06:39.861Z,66.28
2017-05-09T02:07:50.120Z,67.24
2017-05-09T02:09:00.383Z,66.47
2017-05-09T02:10:10.334Z,66.28
2017-05-09T02:11:20.591Z,66.76
2017-05-09T02:12:30.852Z,66.38
2017-05-09T02:13:41.114Z,67.24
2017-05-09T02:14:51.372Z,66.47
2017-05-09T02:16:01.637Z,65.44
2017-05-09T02:17:11.895Z,65.25
2017-05-09T02:18:21.844Z,65.25
2017-05-09T02:19:32.098Z,65.81
2017-05-09T02:20:42.352Z,66.09
2017-05-09T02:21:52.612Z,66.28
2017-05-09T02:23:02.868Z,65.72
2017-05-09T02:24:13.135Z,65.72
2017-05-09T02:25:23.398Z,65.81
2017-05-09T02:26:33.346Z,65.47
2017-05-09T02:27:43.614Z,65.19
2017-05-09T02:28:53.871Z,65.84
2017-05-09T02:30:04.135Z,65.75
2017-05-09T02:31:13.767Z,65.84
2017-05-09T02:32:24.029Z,65.47
2017-05-09T02:33:34.292Z,65.37
2017-05-09T02:34:44.557Z,65.37
2017-05-09T02:35:54.820Z,65
2017-05-09T02:37:04.762Z,65.47
2017-05-09T02:38:15.023Z,64.9
2017-05-09T02:39:25.303Z,64.81
2017-05-09T02:40:35.613Z,65.09
2017-05-09T02:41:45.875Z,65.09
2017-05-09T02:42:56.136Z,65.37
2017-05-09T02:44:06.401Z,65.09
2017-05-09T02:45:16.354Z,66
2017-05-09T02:46:26.618Z,65.72
2017-05-09T02:47:36.877Z,65.63
2017-05-09T02:48:46.827Z,65.91
2017-05-09T02:49:57.092Z,65.81
2017-05-09T02:51:07.354Z,65.81
2017-05-09T02:52:17.612Z,66
2017-05-09T02:53:27.873Z,66.19
2017-05-09T02:54:38.143Z,66.95
2017-05-09T02:55:48.412Z,66.28
2017-05-09T02:56:58.675Z,65.72
2017-05-09T02:58:08.950Z,65.53
2017-05-09T02:59:18.895Z,65.81
2017-05-09T03:00:29.154Z,66.67
2017-05-09T03:01:39.418Z,65.81
2017-05-09T03:02:51.681Z,64.96
2017-05-09T03:04:01.634Z,65.44
2017-05-09T03:05:11.898Z,64.87
2017-05-09T03:06:21.845Z,65.44
2017-05-09T03:07:32.102Z,65.72
2017-05-09T03:08:42.368Z,66.67
2017-05-09T03:09:52.626Z,66.38
2017-05-09T03:11:02.887Z,65.81
2017-05-09T03:12:12.826Z,65.91
2017-05-09T03:13:23.082Z,65.47
2017-05-09T03:14:33.344Z,65.19
2017-05-09T03:15:43.286Z,65.56
2017-05-09T03:16:53.545Z,66.19
2017-05-09T03:18:03.802Z,65.47
2017-05-09T03:19:14.089Z,65.28
2017-05-09T03:20:24.351Z,65.47
2017-05-09T03:21:34.610Z,65.19
2017-05-09T03:22:44.607Z,65
2017-05-09T03:23:54.908Z,64.42
2017-05-09T03:25:05.178Z,64.71
2017-05-09T03:26:15.131Z,64.9
2017-05-09T03:27:25.080Z,64.61
2017-05-09T03:28:35.342Z,64.33
2017-05-09T03:29:45.601Z,64.71
2017-05-09T03:30:55.865Z,65
2017-05-09T03:32:06.127Z,66.13
2017-05-09T03:33:16.073Z,66.03
2017-05-09T03:34:26.350Z,66.51
2017-05-09T03:35:36.607Z,66.86
2017-05-09T03:36:46.875Z,66.57
2017-05-09T03:37:57.130Z,66.67
2017-05-09T03:39:07.395Z,67.05
2017-05-09T03:40:17.666Z,68.46
2017-05-09T03:41:27.927Z,67.9
2017-05-09T03:42:37.873Z,67.05
2017-05-09T03:43:48.129Z,66.95
2017-05-09T03:44:58.395Z,67.43
2017-05-09T03:46:08.668Z,66.67
2017-05-09T03:47:18.615Z,66.28
2017-05-09T03:48:28.873Z,66
2017-05-09T03:49:39.138Z,65.72
2017-05-09T03:50:49.398Z,65.72
2017-05-09T03:51:59.655Z,66.09
2017-05-09T03:53:09.601Z,67.05
2017-05-09T03:54:19.903Z,67.05
2017-05-09T03:55:30.166Z,67.8
2017-05-09T03:56:40.111Z,67.9
2017-05-09T03:57:50.058Z,67.9
2017-05-09T03:59:00.314Z,67.99
2017-05-09T04:00:10.567Z,68.37
2017-05-09T04:01:20.512Z,67.9
2017-05-09T04:02:30.803Z,67.71
2017-05-09T04:03:41.063Z,67.9
2017-05-09T04:04:51.326Z,67.52
2017-05-09T04:06:01.594Z,67.71
2017-05-09T04:07:11.539Z,67.24
2017-05-09T04:08:21.799Z,67.9
2017-05-09T04:09:32.080Z,67.61
2017-05-09T04:10:42.342Z,67.99
2017-05-09T04:11:52.612Z,68.27
2017-05-09T04:13:02.871Z,69.22
2017-05-09T04:14:13.132Z,70.36
2017-05-09T04:15:23.389Z,70.64
2017-05-09T04:16:33.647Z,70.07
2017-05-09T04:17:43.906Z,70.07
2017-05-09T04:18:54.171Z,69.6
2017-05-09T04:20:04.119Z,69.6
2017-05-09T04:21:14.380Z,69.79
2017-05-09T04:22:24.643Z,69.03
2017-05-09T04:23:34.937Z,68.37
2017-05-09T04:24:44.878Z,67.9
2017-05-09T04:25:55.145Z,67.43
2017-05-09T04:27:05.400Z,66.95
2017-05-09T04:28:15.346Z,66.95
2017-05-09T04:29:25.599Z,66.38
2017-05-09T04:30:35.856Z,66.38
2017-05-09T04:31:46.117Z,66.57
2017-05-09T04:32:56.377Z,67.05
2017-05-09T04:34:06.643Z,67.05
2017-05-09T04:35:16.589Z,66.95
2017-05-09T04:36:26.849Z,67.43
2017-05-09T04:37:37.106Z,66.95
2017-05-09T04:38:47.385Z,67.61
2017-05-09T04:39:57.660Z,67.05
2017-05-09T04:41:07.918Z,67.05
2017-05-09T04:42:18.183Z,67.8
2017-05-09T04:43:28.127Z,67.14
2017-05-09T04:44:38.388Z,66.76
2017-05-09T04:45:48.644Z,67.05
2017-05-09T04:46:58.905Z,67.18
2017-05-09T04:48:09.170Z,67.08
2017-05-09T04:49:19.434Z,66.8
2017-05-09T04:50:29.699Z,66.99
2017-05-09T04:51:39.647Z,67.65
2017-05-09T04:52:49.594Z,66.89
2017-05-09T04:53:59.862Z,66.22
2017-05-09T04:55:10.116Z,66.22
2017-05-09T04:56:20.419Z,65.75
2017-05-09T04:57:30.683Z,65.84
2017-05-09T04:58:40.948Z,65.94
2017-05-09T04:59:53.215Z,65
2017-05-09T05:01:03.478Z,65.37
2017-05-09T05:02:13.426Z,65.19
2017-05-09T05:03:23.427Z,65.09
2017-05-09T05:04:33.688Z,66.41
2017-05-09T05:05:43.947Z,65
2017-05-09T05:06:54.199Z,65
2017-05-09T05:08:04.502Z,65.19
2017-05-09T05:09:14.443Z,65.28
2017-05-09T05:10:24.701Z,65.5
2017-05-09T05:11:34.965Z,65.22
2017-05-09T05:12:45.233Z,64.46
2017-05-09T05:13:55.488Z,63.98
2017-05-09T05:15:05.116Z,64.65
2017-05-09T05:16:15.068Z,63.42
2017-05-09T05:17:25.356Z,63.23
2017-05-09T05:18:35.616Z,62.85
2017-05-09T05:19:45.570Z,63.7
2017-05-09T05:20:55.832Z,63.7
2017-05-09T05:22:06.093Z,63.7
2017-05-09T05:23:16.358Z,63.23
2017-05-09T05:24:26.624Z,63.17
2017-05-09T05:25:36.878Z,62.97
2017-05-09T05:26:47.151Z,62.78
2017-05-09T05:27:57.414Z,63.26
2017-05-09T05:29:07.672Z,63.26
2017-05-09T05:30:17.635Z,63.54
2017-05-09T05:31:27.895Z,62.69
2017-05-09T05:32:38.167Z,62.4
2017-05-09T05:33:47.799Z,62.59
2017-05-09T05:34:58.063Z,62.12
2017-05-09T05:36:08.324Z,61.83
2017-05-09T05:37:17.959Z,61.46
2017-05-09T05:38:28.048Z,61.55
2017-05-09T05:39:38.322Z,61.55
2017-05-09T05:40:48.581Z,61.36
2017-05-09T05:41:58.531Z,61.55
2017-05-09T05:43:08.795Z,61.46
2017-05-09T05:44:19.056Z,60.98
2017-05-09T05:45:29.314Z,61.08
2017-05-09T05:46:39.264Z,61.08
2017-05-09T05:47:49.524Z,61.49
2017-05-09T05:48:59.473Z,61.58
2017-05-09T05:50:09.731Z,60.82
2017-05-09T05:51:19.992Z,60.35
2017-05-09T05:52:30.259Z,60.53
2017-05-09T05:53:40.202Z,60.73
2017-05-09T05:54:50.145Z,60.35
2017-05-09T05:56:00.415Z,60.31
2017-05-09T05:57:10.046Z,61.27
2017-05-09T05:58:19.993Z,60.41
2017-05-09T05:59:30.271Z,61.46
2017-05-09T06:00:40.539Z,61.08
2017-05-09T06:01:50.794Z,60.98
2017-05-09T06:03:01.059Z,61.17
2017-05-09T06:04:11.320Z,61.08
2017-05-09T06:05:21.583Z,61.93
2017-05-09T06:06:31.861Z,61.46
2017-05-09T06:07:41.806Z,61.27
2017-05-09T06:08:52.075Z,60.31
2017-05-09T06:10:02.351Z,60.31
2017-05-09T06:11:12.625Z,60.41
2017-05-09T06:12:22.888Z,60.03
2017-05-09T06:13:33.150Z,60.13
2017-05-09T06:14:43.108Z,59.18
2017-05-09T06:15:53.368Z,58.89
2017-05-09T06:17:03.635Z,58.89
2017-05-09T06:18:13.581Z,59.59
2017-05-09T06:19:23.533Z,59.78
2017-05-09T06:20:33.829Z,59.78
2017-05-09T06:21:44.091Z,58.45
2017-05-09T06:22:54.348Z,58.17
2017-05-09T06:24:04.616Z,58.26
2017-05-09T06:25:14.244Z,56.36
2017-05-09T06:26:24.502Z,54.75
2017-05-09T06:27:34.798Z,54.46
2017-05-09T06:28:45.066Z,55.22
2017-05-09T06:29:55.012Z,55.89
2017-05-09T06:31:04.654Z,55.7
2017-05-09T06:32:14.918Z,56.71
2017-05-09T06:33:25.182Z,56.24
2017-05-09T06:34:35.127Z,57.57
2017-05-09T06:35:45.075Z,58.23
2017-05-09T06:36:55.342Z,58.33
2017-05-09T06:38:05.604Z,58.33
2017-05-09T06:39:15.237Z,57.57
2017-05-09T06:40:25.182Z,56.84
2017-05-09T06:41:35.445Z,57.4
2017-05-09T06:42:45.081Z,57.95
2017-05-09T06:43:55.337Z,58.07
2017-05-09T06:45:05.595Z,57.95
2017-05-09T06:46:15.536Z,56.74
2017-05-09T06:47:25.794Z,56.65
2017-05-09T06:48:35.826Z,56.36
2017-05-09T06:49:46.099Z,57.4
2017-05-09T06:50:56.368Z,55.98
2017-05-09T06:52:06.629Z,56.17
2017-05-09T06:53:16.899Z,55.89
2017-05-09T06:54:26.856Z,55.04
2017-05-09T06:55:37.113Z,55.13
2017-05-09T06:56:47.384Z,54.46
2017-05-09T06:57:57.332Z,55.7
2017-05-09T06:59:07.606Z,55.89
2017-05-09T07:00:17.277Z,54.08
2017-05-09T07:01:27.545Z,53.89
2017-05-09T07:02:37.497Z,55.38
2017-05-09T07:03:47.440Z,55.29
2017-05-09T07:04:57.699Z,57.28
2017-05-09T07:06:07.656Z,56.34
2017-05-09T07:07:17.610Z,57.66
2017-05-09T07:08:27.556Z,57.28
2017-05-09T07:09:37.823Z,56.71
2017-05-09T07:10:48.085Z,55.98
2017-05-09T07:11:58.368Z,56.27
2017-05-09T07:13:08.638Z,56.24
2017-05-09T07:14:18.274Z,55.67
2017-05-09T07:15:28.540Z,55.29
2017-05-09T07:16:38.813Z,55.19
2017-05-09T07:17:49.087Z,55.86
2017-05-09T07:18:59.352Z,54.91
2017-05-09T07:20:09.643Z,54.94
2017-05-09T07:21:19.908Z,54.18
2017-05-09T07:22:29.860Z,54.08
2017-05-09T07:23:40.123Z,54.85
2017-05-09T07:24:50.391Z,54.08
2017-05-09T07:26:00.352Z,53.23
2017-05-09T07:27:10.301Z,53.61
2017-05-09T07:28:20.248Z,54.94
2017-05-09T07:29:30.206Z,55.19
2017-05-09T07:30:40.159Z,54.06
2017-05-09T07:31:50.100Z,53.96
2017-05-09T07:33:00.046Z,53.87
2017-05-09T07:34:10.000Z,53.58
2017-05-09T07:35:19.638Z,54.34
2017-05-09T07:36:29.903Z,54.44
2017-05-09T07:37:40.164Z,54.44
2017-05-09T07:38:50.427Z,53.68
2017-05-09T07:40:00.689Z,54.15
2017-05-09T07:41:10.948Z,54.06
2017-05-09T07:42:21.205Z,53.2
2017-05-09T07:43:31.471Z,54.06
2017-05-09T07:44:41.422Z,54.25
2017-05-09T07:45:51.686Z,54.06
2017-05-09T07:47:01.946Z,54.72
2017-05-09T07:48:12.207Z,53.68
2017-05-09T07:49:22.468Z,52.73
2017-05-09T07:50:32.738Z,53.3
2017-05-09T07:51:42.367Z,52.26
2017-05-09T07:52:52.627Z,53.11
2017-05-09T07:54:02.581Z,54.15
2017-05-09T07:55:12.864Z,53.58
2017-05-09T07:56:23.127Z,53.02
2017-05-09T07:57:33.392Z,51.87
2017-05-09T07:58:43.340Z,51.9
2017-05-09T07:59:53.603Z,51.52
2017-05-09T08:01:03.557Z,50.2
2017-05-09T08:02:13.505Z,50.57
2017-05-09T08:03:23.773Z,50.76
2017-05-09T08:04:34.037Z,50.76
2017-05-09T08:05:44.297Z,49.63
2017-05-09T08:06:54.566Z,50.2
2017-05-09T08:08:04.828Z,52.76
2017-05-09T08:09:14.773Z,52
2017-05-09T08:10:25.038Z,52.76
2017-05-09T08:11:35.299Z,51.72
2017-05-09T08:12:45.249Z,50.76
2017-05-09T08:13:55.516Z,50.2
2017-05-09T08:15:05.781Z,49.82
2017-05-09T08:16:15.737Z,49.43
2017-05-09T08:17:26.000Z,50.48
2017-05-09T08:18:36.269Z,49.63
2017-05-09T08:19:46.532Z,50.2
2017-05-09T08:20:56.792Z,49.43
2017-05-09T08:22:07.063Z,49.82
2017-05-09T08:23:17.328Z,49.72
2017-05-09T08:24:26.963Z,49.46
2017-05-09T08:25:37.220Z,49.63
2017-05-09T08:26:47.480Z,49.27
2017-05-09T08:27:57.747Z,48.61
2017-05-09T08:29:07.696Z,49.72
2017-05-09T08:30:17.335Z,49.74
2017-05-09T08:31:27.601Z,49.46
2017-05-09T08:32:37.869Z,49.08
2017-05-09T08:33:48.140Z,48.89
2017-05-09T08:34:58.436Z,48.3
2017-05-09T08:36:08.697Z,48.41
2017-05-09T08:37:18.668Z,49.84
2017-05-09T08:38:28.619Z,49.55
2017-05-09T08:39:38.887Z,49.43
2017-05-09T08:40:49.149Z,48.58
2017-05-09T08:41:59.414Z,48.01
2017-05-09T08:43:09.370Z,47.25
2017-05-09T08:44:19.325Z,47.53
2017-05-09T08:45:29.598Z,48.2
2017-05-09T08:46:39.861Z,47.73
2017-05-09T08:47:49.804Z,49.15
2017-05-09T08:49:00.060Z,48.96
2017-05-09T08:50:10.020Z,48.41
2017-05-09T08:51:19.962Z,48.61
2017-05-09T08:52:30.235Z,48.03
2017-05-09T08:53:40.180Z,48.8
2017-05-09T08:54:50.441Z,47.56
2017-05-09T08:56:00.706Z,47.66
2017-05-09T08:57:10.034Z,47.47
2017-05-09T08:58:20.301Z,47.75
2017-05-09T08:59:30.504Z,47.85
2017-05-09T09:00:40.142Z,46.61
2017-05-09T09:01:50.407Z,46.04
2017-05-09T09:03:00.361Z,48.8
2017-05-09T09:04:10.309Z,47.75
2017-05-09T09:05:20.260Z,46.7
2017-05-09T09:06:30.528Z,46.7
2017-05-09T09:07:40.809Z,45.76
2017-05-09T09:08:50.757Z,47.75
2017-05-09T09:10:01.016Z,47.09
2017-05-09T09:11:11.280Z,46.04
2017-05-09T09:12:21.548Z,46.04
2017-05-09T09:13:31.183Z,46.51
2017-05-09T09:14:41.456Z,47.37
2017-05-09T09:15:51.721Z,45.95
2017-05-09T09:17:01.668Z,45.85
2017-05-09T09:18:11.942Z,46.06
2017-05-09T09:19:21.928Z,44.45
2017-05-09T09:20:32.192Z,46.25
2017-05-09T09:21:42.449Z,46.35
2017-05-09T09:22:52.711Z,46.35
2017-05-09T09:24:02.973Z,45.12
2017-05-09T09:25:12.933Z,42.83
2017-05-09T09:26:23.195Z,43.41
2017-05-09T09:27:33.143Z,43.12
2017-05-09T09:28:43.087Z,43.02
2017-05-09T09:29:53.035Z,43.14
2017-05-09T09:31:03.292Z,44
2017-05-09T09:32:12.927Z,42.76
2017-05-09T09:33:22.912Z,41.53
2017-05-09T09:34:32.862Z,41.81
2017-05-09T09:35:43.140Z,41.72
2017-05-09T09:36:53.092Z,40.79
2017-05-09T09:38:02.412Z,41.74
2017-05-09T09:39:12.358Z,42.4
2017-05-09T09:40:22.628Z,41.66
2017-05-09T09:41:32.589Z,40.14
2017-05-09T09:42:42.548Z,40.43
2017-05-09T09:43:52.496Z,40.43
2017-05-09T09:45:02.764Z,39.12
2017-05-09T09:46:13.033Z,38.73
2017-05-09T09:47:23.304Z,39.09
2017-05-09T09:48:33.261Z,38.17
2017-05-09T09:49:42.899Z,39.12
2017-05-09T09:50:53.168Z,38.07
2017-05-09T09:52:03.123Z,37.1
2017-05-09T09:53:12.444Z,37.38
2017-05-09T09:54:22.396Z,38.34
2017-05-09T09:55:32.657Z,38.54
2017-05-09T09:56:42.919Z,39.69
2017-05-09T09:57:53.187Z,40.26
2017-05-09T09:59:03.144Z,40.16
2017-05-09T10:00:12.781Z,40.06
2017-05-09T10:01:23.048Z,39.5
2017-05-09T10:02:33.030Z,38.66
2017-05-09T10:03:42.978Z,38.09
2017-05-09T10:04:52.929Z,38.18
2017-05-09T10:06:03.191Z,37.52
2017-05-09T10:07:12.834Z,36.94
2017-05-09T10:08:22.789Z,38.1
2017-05-09T10:09:32.743Z,37.92
2017-05-09T10:10:43.006Z,37.92
2017-05-09T10:11:53.273Z,37.92
2017-05-09T10:13:03.543Z,37.63
2017-05-09T10:14:13.494Z,37.84
2017-05-09T10:15:23.764Z,37.84
2017-05-09T10:16:34.034Z,37.08
2017-05-09T10:17:44.300Z,35.55
2017-05-09T10:18:54.578Z,35.55
2017-05-09T10:20:04.526Z,35.55
2017-05-09T10:21:14.792Z,36.32
2017-05-09T10:22:25.060Z,36.03
2017-05-09T10:23:35.048Z,35.66
2017-05-09T10:24:44.997Z,34.81
2017-05-09T10:25:54.960Z,34.9
2017-05-09T10:27:04.602Z,35.38
2017-05-09T10:28:14.557Z,34.61
2017-05-09T10:29:24.828Z,34.52
2017-05-09T10:30:34.788Z,34.05
2017-05-09T10:31:44.769Z,33.37
2017-05-09T10:32:55.043Z,32.71
2017-05-09T10:34:05.318Z,32.34
2017-05-09T10:35:14.959Z,33.11
2017-05-09T10:36:24.912Z,33.68
2017-05-09T10:37:34.874Z,30.63
2017-05-09T10:38:45.139Z,30.53
2017-05-09T10:39:55.401Z,30.43
2017-05-09T10:41:05.673Z,30.63
2017-05-09T10:42:15.630Z,31.87
2017-05-09T10:43:25.585Z,31.4
2017-05-09T10:44:35.854Z,31.31
2017-05-09T10:45:46.120Z,32.45
2017-05-09T10:46:56.387Z,32.07
2017-05-09T10:48:06.652Z,31.6
2017-05-09T10:49:16.302Z,31.69
2017-05-09T10:50:26.576Z,29.97
2017-05-09T10:51:36.843Z,29.37
2017-05-09T10:52:46.804Z,30.21
2017-05-09T10:53:56.774Z,30.5
2017-05-09T10:55:07.046Z,31.34
2017-05-09T10:56:17.020Z,32.18
2017-05-09T10:57:27.289Z,32.09
2017-05-09T10:58:37.559Z,33.51
2017-05-09T10:59:47.516Z,32.39
2017-05-09T11:00:57.788Z,32.68
2017-05-09T11:02:08.054Z,32.39
2017-05-09T11:03:18.013Z,31.53
2017-05-09T11:04:28.304Z,31.07
2017-05-09T11:05:38.583Z,30.5
2017-05-09T11:06:48.542Z,31.45
2017-05-09T11:07:58.495Z,31.26
2017-05-09T11:09:08.757Z,29.75
2017-05-09T11:10:18.713Z,29.66
2017-05-09T11:11:28.984Z,30.04
2017-05-09T11:12:39.255Z,29.94
2017-05-09T11:13:48.906Z,31.37
2017-05-09T11:14:59.196Z,31.47
2017-05-09T11:16:09.463Z,31.77
2017-05-09T11:17:19.417Z,31.87
2017-05-09T11:18:29.377Z,31.29
2017-05-09T11:19:39.332Z,31.4
2017-05-09T11:20:49.597Z,30.35
2017-05-09T11:21:59.931Z,29.22
2017-05-09T11:23:10.204Z,28.84
2017-05-09T11:24:20.162Z,29.02
2017-05-09T11:25:30.137Z,29.41
2017-05-09T11:26:40.408Z,29.41
2017-05-09T11:27:50.689Z,28.86
2017-05-09T11:29:00.967Z,29.25
2017-05-09T11:30:11.242Z,28.39
2017-05-09T11:31:21.199Z,28.41
2017-05-09T11:32:31.505Z,27.44
2017-05-09T11:33:41.773Z,27.64
2017-05-09T11:34:52.054Z,26.5
2017-05-09T11:36:02.332Z,27.26
2017-05-09T11:37:12.293Z,26.5
2017-05-09T11:38:22.253Z,27.45
2017-05-09T11:39:32.217Z,26.68
2017-05-09T11:40:42.179Z,26.11
2017-05-09T11:41:52.155Z,26.59
2017-05-09T11:43:04.308Z,25.82
2017-05-09T11:44:14.601Z,26.68
2017-05-09T11:45:24.874Z,26.5
2017-05-09T11:46:35.147Z,26.97
2017-05-09T11:47:45.417Z,26.31
2017-05-09T11:48:55.685Z,26.22
2017-05-09T11:50:05.644Z,26.3
2017-05-09T11:51:15.913Z,24.68
2017-05-09T11:52:26.208Z,24.98
2017-05-09T11:53:36.537Z,24.98
2017-05-09T11:54:46.809Z,24.88
2017-05-09T11:55:57.089Z,23.84
2017-05-09T11:57:07.367Z,23.85
2017-05-09T11:58:17.327Z,22.24
2017-05-09T11:59:27.297Z,22.05
2017-05-09T12:00:37.575Z,21.01
2017-05-09T12:01:47.567Z,20.72
2017-05-09T12:02:57.847Z,21.39
2017-05-09T12:04:08.129Z,22.55
2017-05-09T12:05:18.092Z,21.98
2017-05-09T12:06:28.368Z,22.08
2017-05-09T12:07:38.330Z,21.61
2017-05-09T12:08:48.292Z,21.23
2017-05-09T12:09:58.568Z,20.86
2017-05-09T12:11:08.836Z,19.62
2017-05-09T12:12:18.801Z,18.66
2017-05-09T12:13:29.076Z,19.03
2017-05-09T12:14:39.357Z,19.33
2017-05-09T12:15:49.321Z,18.56
2017-05-09T12:16:59.286Z,18.46
2017-05-09T12:18:09.561Z,18.85
2017-05-09T12:19:19.831Z,18.08
2017-05-09T12:20:30.120Z,18.08
2017-05-09T12:21:40.399Z,17.51
2017-05-09T12:22:50.359Z,17.22
2017-05-09T12:24:00.634Z,16.26
2017-05-09T12:25:10.603Z,17.11
2017-05-09T12:26:20.599Z,17.21
2017-05-09T12:27:30.869Z,17.77
2017-05-09T12:28:41.141Z,17.96
2017-05-09T12:29:51.410Z,18.15
2017-05-09T12:31:01.713Z,18.53
2017-05-09T12:32:11.676Z,18.63
2017-05-09T12:33:21.639Z,18.24
2017-05-09T12:34:31.915Z,18.81
2017-05-09T12:35:42.193Z,19.29
2017-05-09T12:36:52.474Z,18.04
2017-05-09T12:38:02.751Z,18.61
2017-05-09T12:39:12.709Z,18.8
2017-05-09T12:40:22.983Z,18.13
2017-05-09T12:41:32.970Z,17.74
2017-05-09T12:42:43.238Z,16.13
2017-05-09T12:43:53.510Z,16.68
2017-05-09T12:45:03.816Z,18.13
2017-05-09T12:46:14.093Z,17.36
2017-05-09T12:47:24.053Z,16.31
2017-05-09T12:48:34.024Z,16.3
2017-05-09T12:49:44.300Z,18.12
2017-05-09T12:50:54.257Z,17.36
2017-05-09T12:52:04.540Z,15.93
2017-05-09T12:53:14.506Z,17.36
2017-05-09T12:54:24.467Z,17.47
2017-05-09T12:55:34.739Z,17.1
2017-05-09T12:56:45.019Z,17.21
2017-05-09T12:57:55.290Z,17.21
2017-05-09T12:59:05.562Z,16.83
2017-05-09T13:00:15.838Z,16.74
2017-05-09T13:01:25.802Z,16.45
2017-05-09T13:02:36.076Z,15.39
2017-05-09T13:03:46.349Z,15.3
2017-05-09T13:04:56.313Z,15.97
2017-05-09T13:06:06.588Z,15.78
2017-05-09T13:07:16.547Z,15.69
2017-05-09T13:08:26.824Z,14.54
2017-05-09T13:09:36.795Z,13.87
2017-05-09T13:10:47.074Z,12.71
2017-05-09T13:11:57.348Z,12.7
2017-05-09T13:13:07.641Z,14.59
2017-05-09T13:14:17.921Z,15.54
2017-05-09T13:15:28.207Z,14.97
2017-05-09T13:16:38.483Z,13.92
2017-05-09T13:17:48.454Z,14.1
2017-05-09T13:18:58.741Z,14.86
2017-05-09T13:20:08.707Z,15.35
2017-05-09T13:21:18.704Z,14.59
2017-05-09T13:22:28.984Z,14.7
2017-05-09T13:23:39.260Z,13.93
2017-05-09T13:24:49.226Z,14.32
2017-05-09T13:25:59.511Z,14.71
2017-05-09T13:27:09.501Z,14.81
2017-05-09T13:28:19.520Z,14.53
2017-05-09T13:29:29.173Z,14.53
2017-05-09T13:30:39.454Z,15.2
2017-05-09T13:31:49.742Z,16.35
2017-05-09T13:33:00.061Z,16.35
2017-05-09T13:34:10.343Z,16.73
2017-05-09T13:35:20.620Z,17.31
2017-05-09T13:36:30.901Z,17.21
2017-05-09T13:37:40.238Z,17.11
2017-05-09T13:38:50.515Z,17.49
2017-05-09T13:40:00.792Z,17.19
2017-05-09T13:41:10.756Z,17.19
2017-05-09T13:42:20.718Z,17.68
2017-05-09T13:43:31.003Z,17.29
2017-05-09T13:44:40.649Z,17.4
2017-05-09T13:45:50.612Z,17
2017-05-09T13:47:00.573Z,16.42
2017-05-09T13:48:10.533Z,17.19
2017-05-09T13:49:20.499Z,17.86
2017-05-09T13:50:30.768Z,17.37
2017-05-09T13:51:40.742Z,17.08
2017-05-09T13:52:50.397Z,16.5
2017-05-09T13:54:00.670Z,17.25
2017-05-09T13:55:10.627Z,17.25
2017-05-09T13:56:20.900Z,17.73
2017-05-09T13:57:31.174Z,18.21
2017-05-09T13:58:41.166Z,18.21
2017-05-09T13:59:51.123Z,18.31
2017-05-09T14:01:01.078Z,16.98
2017-05-09T14:02:10.719Z,17.07
2017-05-09T14:03:20.681Z,17.27
2017-05-09T14:04:30.950Z,16.61
2017-05-09T14:05:41.222Z,16.42
2017-05-09T14:06:51.493Z,15.66
2017-05-09T14:08:01.772Z,15.86
2017-05-09T14:09:11.733Z,16.16
2017-05-09T14:10:22.011Z,15.59
2017-05-09T14:11:32.289Z,15.02
2017-05-09T14:12:42.249Z,15.04
2017-05-09T14:13:52.523Z,14.47
2017-05-09T14:15:02.489Z,13.6
2017-05-09T14:16:12.774Z,13.32
2017-05-09T14:17:23.053Z,12.93
2017-05-09T14:18:33.017Z,12.37
2017-05-09T14:19:43.294Z,12.94
2017-05-09T14:20:53.606Z,11.5
2017-05-09T14:22:03.901Z,11.79
2017-05-09T14:23:13.564Z,12.27
2017-05-09T14:24:22.899Z,12.07
2017-05-09T14:25:33.175Z,11.69
2017-05-09T14:26:43.150Z,12.08
2017-05-09T14:27:53.427Z,11.71
2017-05-09T14:29:03.401Z,11.71
2017-05-09T14:30:13.378Z,11.52
2017-05-09T14:31:23.653Z,10.65
2017-05-09T14:32:33.936Z,10.46
2017-05-09T14:33:44.219Z,9.79
2017-05-09T14:34:54.189Z,10.08
2017-05-09T14:36:04.467Z,10.08
2017-05-09T14:37:14.436Z,9.3
2017-05-09T14:38:24.414Z,10.08
2017-05-09T14:39:34.696Z,9.5
2017-05-09T14:40:44.986Z,8.14
2017-05-09T14:41:54.966Z,8.03
2017-05-09T14:43:05.248Z,8.98
2017-05-09T14:44:15.212Z,10.41
2017-05-09T14:45:25.491Z,10.88
2017-05-09T14:46:35.806Z,11.83
2017-05-09T14:47:46.089Z,11.93
2017-05-09T14:48:56.059Z,11.84
2017-05-09T14:50:06.339Z,12.22
2017-05-09T14:51:15.990Z,12.32
2017-05-09T14:52:25.958Z,12.7
2017-05-09T14:53:36.243Z,12.69
2017-05-09T14:54:46.220Z,13.55
2017-05-09T14:55:56.512Z,14.21
2017-05-09T14:57:06.479Z,13.64
2017-05-09T14:58:16.454Z,14.3
2017-05-09T14:59:26.741Z,14.39
2017-05-09T15:00:37.021Z,13.43
2017-05-09T15:01:47.297Z,14.18
2017-05-09T15:02:57.627Z,15.52
2017-05-09T15:04:07.907Z,16.27
2017-05-09T15:05:17.871Z,17.03
2017-05-09T15:06:28.147Z,16.16
2017-05-09T15:07:38.118Z,17.12